Du har inga inställningar för hoppväder.nu

Hoppväder.nu

Senast uppdaterat 02:17

UTC-tid

2020-07-07 kl. 00:17


Sol och måne

Solen går upp 3:47 och går ner 23:19 (beräknade cirkatider)
Nästa fullmåne blir om 27 dagar (2020-08-03)

METAR

ESSD (Borlänge)
(1467 minuter sedan)
ESSD 062350Z AUTO 27010KT 9999 BKN041/// OVC053/// 11/07 Q0995=



ESOE (Örebro)
(1467 minuter sedan)
ESOE 062350Z AUTO 25006KT 9999 NCD 12/08 Q0998=



ESOW (Västerås)
(1467 minuter sedan)
ESOW 062350Z AUTO 26008KT 230V300 9999 OVC041/// 13/09 Q0996=



ESOK (Karlstad)
(1467 minuter sedan)
ESOK 062350Z AUTO 28007KT 9999 R03/P1500N R21///// ////// 11/08 Q1000=






TAF

ESSD (Borlänge)
ESSD



ESOE (Örebro)
(407 minuter sedan)
ESOE 061730Z 0618/0622 21010KT 9999 BKN020 PROB40 0618/0621 4000 SHRA BKN014 BKN030CB BECMG 0618/0620 27008KT=



ESOW (Västerås)
ESOW



ESOK (Karlstad)
ESOK





Kodnycklar till TAF och METAR






LHP

(Borlänge är område se34c i Delområde 1)

Prognos är inte uppdaterad






Preliminär prognos